createdAt,value
2022-12-18T00:01:38.672Z,18.72
2022-12-18T00:04:19.867Z,18.46
2022-12-18T00:06:46.963Z,18.79
2022-12-18T00:09:15.504Z,18.45
2022-12-18T00:11:42.560Z,18.94
2022-12-18T00:14:13.193Z,18.57
2022-12-18T00:16:40.859Z,18.92
2022-12-18T00:19:08.443Z,18.45
2022-12-18T00:21:35.396Z,18.53
2022-12-18T00:24:02.325Z,18.72
2022-12-18T00:26:30.837Z,18.96
2022-12-18T00:29:03.012Z,18.69
2022-12-18T00:31:33.197Z,18.86
2022-12-18T00:34:02.069Z,18.93
2022-12-18T00:36:30.347Z,19.08
2022-12-18T00:38:58.568Z,19.18
2022-12-18T00:41:44.743Z,19.20
2022-12-18T00:44:13.749Z,18.97
2022-12-18T00:46:43.156Z,18.81
2022-12-18T00:49:14.406Z,18.83
2022-12-18T00:51:41.624Z,19.08
2022-12-18T00:54:08.607Z,18.76
2022-12-18T00:56:39.353Z,18.65
2022-12-18T00:59:12.643Z,18.85
2022-12-18T01:01:41.213Z,19.18
2022-12-18T01:04:08.245Z,18.85
2022-12-18T01:06:35.184Z,19.25
2022-12-18T01:09:02.456Z,18.69
2022-12-18T01:11:29.414Z,18.75
2022-12-18T01:13:56.528Z,19.08
2022-12-18T01:16:23.890Z,19.03
2022-12-18T01:18:55.363Z,19.07
2022-12-18T01:21:23.387Z,19.22
2022-12-18T01:23:53.132Z,19.18
2022-12-18T01:26:20.169Z,19.27
2022-12-18T01:28:47.101Z,19.23
2022-12-18T01:31:17.897Z,19.46
2022-12-18T01:33:44.971Z,19.07
2022-12-18T01:36:18.948Z,18.80
2022-12-18T01:38:46.476Z,19.07
2022-12-18T01:41:14.227Z,19.22
2022-12-18T01:43:46.952Z,19.34
2022-12-18T01:46:14.728Z,19.18
2022-12-18T01:48:42.281Z,18.93
2022-12-18T01:51:12.178Z,19.19
2022-12-18T01:53:42.811Z,18.81
2022-12-18T01:56:14.558Z,18.78
2022-12-18T01:58:49.719Z,19.19
2022-12-18T02:01:16.831Z,18.95
2022-12-18T02:03:45.254Z,19.03
2022-12-18T02:06:18.059Z,19.20
2022-12-18T02:09:04.480Z,19.24
2022-12-18T02:11:41.343Z,18.86
2022-12-18T02:14:20.195Z,19.09
2022-12-18T02:16:54.131Z,19.17
2022-12-18T02:19:39.135Z,19.18
2022-12-18T02:22:19.288Z,19.30
2022-12-18T02:25:00.686Z,18.88
2022-12-18T02:27:30.334Z,18.98
2022-12-18T02:30:00.626Z,19.16
2022-12-18T02:32:33.875Z,19.49
2022-12-18T02:35:03.380Z,19.38
2022-12-18T02:37:33.456Z,19.26
2022-12-18T02:40:04.870Z,19.44
2022-12-18T02:42:34.919Z,19.38
2022-12-18T02:45:05.290Z,19.18
2022-12-18T02:47:40.231Z,19.30
2022-12-18T02:50:17.916Z,19.17
2022-12-18T02:52:53.030Z,19.20
2022-12-18T02:55:33.733Z,19.16
2022-12-18T02:58:15.405Z,19.05
2022-12-18T03:00:49.450Z,18.52
2022-12-18T03:03:22.674Z,19.50
2022-12-18T03:05:57.739Z,19.10
2022-12-18T03:08:28.818Z,19.22
2022-12-18T03:11:00.827Z,18.99
2022-12-18T03:13:34.576Z,19.18
2022-12-18T03:16:06.422Z,19.42
2022-12-18T03:18:38.945Z,19.55
2022-12-18T03:21:08.957Z,19.27
2022-12-18T03:23:43.980Z,19.06
2022-12-18T03:26:17.252Z,19.00
2022-12-18T03:28:50.514Z,19.00
2022-12-18T03:31:23.528Z,19.18
2022-12-18T03:33:54.405Z,19.10
2022-12-18T03:36:26.414Z,19.38
2022-12-18T03:38:53.670Z,19.31
2022-12-18T03:41:32.142Z,19.44
2022-12-18T03:44:27.882Z,19.51
2022-12-18T03:47:01.555Z,19.15
2022-12-18T03:49:36.634Z,19.39
2022-12-18T03:52:10.216Z,19.05
2022-12-18T03:54:41.891Z,19.17
2022-12-18T03:57:17.807Z,19.31
2022-12-18T03:59:49.217Z,19.48
2022-12-18T04:02:19.158Z,19.52
2022-12-18T04:04:49.000Z,19.09
2022-12-18T04:07:17.798Z,19.53
2022-12-18T04:09:46.629Z,19.09
2022-12-18T04:12:14.598Z,19.16
2022-12-18T04:14:41.782Z,19.42
2022-12-18T04:17:11.337Z,19.03
2022-12-18T04:19:38.217Z,19.07
2022-12-18T04:22:05.276Z,19.44
2022-12-18T04:24:38.706Z,19.11
2022-12-18T04:27:13.578Z,19.32
2022-12-18T04:29:44.408Z,19.46
2022-12-18T04:32:12.723Z,19.14
2022-12-18T04:34:41.986Z,19.06
2022-12-18T04:37:09.290Z,19.32
2022-12-18T04:39:36.806Z,19.33
2022-12-18T04:42:09.343Z,19.14
2022-12-18T04:44:36.989Z,19.31
2022-12-18T04:47:04.215Z,19.57
2022-12-18T04:49:32.613Z,19.60
2022-12-18T04:51:59.644Z,19.48
2022-12-18T04:54:26.629Z,19.44
2022-12-18T04:56:53.527Z,19.60
2022-12-18T04:59:20.977Z,19.41
2022-12-18T05:01:47.941Z,19.22
2022-12-18T05:04:15.028Z,19.20
2022-12-18T05:06:43.340Z,19.70
2022-12-18T05:09:10.236Z,19.34
2022-12-18T05:11:37.097Z,19.57
2022-12-18T05:14:04.014Z,19.45
2022-12-18T05:16:30.923Z,19.45
2022-12-18T05:18:57.923Z,19.26
2022-12-18T05:21:24.836Z,19.21
2022-12-18T05:23:53.130Z,19.51
2022-12-18T05:26:20.501Z,19.24
2022-12-18T05:28:47.739Z,19.65
2022-12-18T05:31:15.350Z,19.40
2022-12-18T05:33:42.620Z,19.68
2022-12-18T05:36:10.614Z,19.47
2022-12-18T05:38:38.815Z,19.63
2022-12-18T05:41:08.215Z,19.17
2022-12-18T05:43:37.023Z,19.52
2022-12-18T05:46:06.472Z,19.34
2022-12-18T05:48:33.671Z,19.31
2022-12-18T05:51:05.996Z,19.50
2022-12-18T05:53:33.268Z,19.20
2022-12-18T05:56:01.580Z,19.87
2022-12-18T05:58:30.163Z,19.77
2022-12-18T06:00:57.104Z,19.87
2022-12-18T06:03:26.875Z,19.70
2022-12-18T06:05:57.602Z,19.82
2022-12-18T06:08:24.527Z,19.55
2022-12-18T06:10:53.477Z,19.26
2022-12-18T06:13:21.196Z,19.45
2022-12-18T06:15:49.515Z,18.98
2022-12-18T06:18:16.430Z,18.95
2022-12-18T06:20:43.915Z,19.08
2022-12-18T06:23:10.936Z,19.41
2022-12-18T06:25:39.628Z,19.03
2022-12-18T06:28:06.695Z,19.28
2022-12-18T06:30:33.593Z,19.15
2022-12-18T06:33:01.989Z,19.11
2022-12-18T06:35:28.886Z,19.60
2022-12-18T06:37:55.823Z,19.15
2022-12-18T06:40:22.703Z,19.11
2022-12-18T06:42:49.843Z,19.08
2022-12-18T06:45:17.124Z,19.42
2022-12-18T06:47:44.266Z,19.16
2022-12-18T06:50:13.579Z,19.41
2022-12-18T06:52:41.292Z,19.21
2022-12-18T06:55:11.755Z,19.37
2022-12-18T06:57:39.334Z,19.44
2022-12-18T07:00:07.964Z,19.29
2022-12-18T07:02:34.953Z,19.40
2022-12-18T07:05:07.444Z,19.21
2022-12-18T07:07:38.791Z,19.29
2022-12-18T07:10:06.380Z,19.06
2022-12-18T07:12:33.707Z,19.24
2022-12-18T07:15:00.585Z,19.30
2022-12-18T07:17:27.522Z,19.25
2022-12-18T07:19:54.439Z,19.06
2022-12-18T07:22:21.384Z,19.09
2022-12-18T07:24:50.718Z,18.98
2022-12-18T07:27:17.756Z,18.74
2022-12-18T07:29:45.104Z,18.96
2022-12-18T07:32:12.134Z,18.92
2022-12-18T07:34:39.632Z,18.90
2022-12-18T07:37:06.551Z,18.91
2022-12-18T07:39:33.465Z,18.82
2022-12-18T07:42:20.592Z,18.94
2022-12-18T07:44:48.897Z,18.88
2022-12-18T07:47:15.759Z,18.79
2022-12-18T07:49:42.637Z,18.64
2022-12-18T07:52:10.505Z,18.78
2022-12-18T07:54:37.432Z,18.73
2022-12-18T07:57:21.301Z,19.05
2022-12-18T07:59:52.832Z,18.94
2022-12-18T08:02:19.851Z,18.63
2022-12-18T08:04:48.738Z,18.89
2022-12-18T08:07:15.617Z,18.51
2022-12-18T08:09:42.502Z,18.59
2022-12-18T08:12:10.744Z,18.67
2022-12-18T08:14:37.908Z,18.65
2022-12-18T08:17:05.031Z,18.43
2022-12-18T08:19:31.911Z,18.58
2022-12-18T08:21:58.754Z,18.42
2022-12-18T08:24:27.067Z,18.44
2022-12-18T08:27:20.757Z,18.43
2022-12-18T08:29:42.247Z,18.48
2022-12-18T08:32:09.370Z,18.58
2022-12-18T08:34:36.630Z,18.50
2022-12-18T08:37:03.509Z,18.41
2022-12-18T08:39:30.463Z,18.53
2022-12-18T08:42:15.592Z,18.30
2022-12-18T08:44:43.984Z,18.54
2022-12-18T08:47:10.896Z,18.43
2022-12-18T08:49:37.829Z,18.37
2022-12-18T08:52:04.996Z,18.60
2022-12-18T08:54:32.023Z,18.37
2022-12-18T08:56:58.896Z,18.31
2022-12-18T08:59:25.883Z,18.13
2022-12-18T09:01:55.091Z,18.25
2022-12-18T09:04:22.169Z,18.17
2022-12-18T09:06:49.099Z,18.12
2022-12-18T09:09:15.993Z,18.38
2022-12-18T09:11:42.996Z,18.37
2022-12-18T09:14:10.660Z,18.14
2022-12-18T09:16:37.550Z,18.18
2022-12-18T09:19:06.620Z,18.27
2022-12-18T09:21:37.237Z,18.24
2022-12-18T09:24:08.824Z,18.17
2022-12-18T09:26:36.632Z,18.42
2022-12-18T09:29:03.890Z,18.26
2022-12-18T09:31:31.159Z,18.31
2022-12-18T09:33:58.050Z,18.15
2022-12-18T09:36:26.299Z,18.64
2022-12-18T09:38:54.190Z,18.34
2022-12-18T09:41:37.351Z,18.11
2022-12-18T09:44:12.311Z,18.16
2022-12-18T09:46:44.745Z,18.12
2022-12-18T09:49:15.707Z,18.21
2022-12-18T09:51:48.178Z,18.20
2022-12-18T09:54:21.741Z,18.06
2022-12-18T09:56:49.358Z,18.05
2022-12-18T09:59:24.453Z,17.74
2022-12-18T10:01:51.505Z,17.72
2022-12-18T10:04:19.798Z,17.78
2022-12-18T10:06:55.356Z,17.81
2022-12-18T10:09:30.869Z,17.77
2022-12-18T10:12:07.107Z,17.70
2022-12-18T10:14:42.023Z,17.61
2022-12-18T10:17:18.791Z,17.53
2022-12-18T10:19:51.668Z,17.66
2022-12-18T10:22:40.429Z,17.46
2022-12-18T10:25:19.700Z,17.32
2022-12-18T10:27:46.599Z,17.63
2022-12-18T10:30:15.881Z,17.46
2022-12-18T10:32:42.971Z,17.49
2022-12-18T10:35:18.976Z,17.54
2022-12-18T10:38:05.633Z,17.55
2022-12-18T10:40:33.548Z,17.49
2022-12-18T10:43:05.971Z,17.32
2022-12-18T10:45:32.920Z,17.52
2022-12-18T10:47:59.960Z,17.56
2022-12-18T10:50:47.182Z,17.18
2022-12-18T10:53:22.794Z,17.34
2022-12-18T10:55:50.253Z,17.11
2022-12-18T10:58:26.738Z,17.09
2022-12-18T11:01:06.462Z,17.20
2022-12-18T11:03:38.702Z,17.01
2022-12-18T11:06:09.058Z,16.97
2022-12-18T11:08:38.148Z,17.20
2022-12-18T11:11:09.211Z,16.91
2022-12-18T11:13:36.151Z,17.05
2022-12-18T11:16:03.132Z,16.74
2022-12-18T11:18:33.060Z,16.70
2022-12-18T11:21:07.033Z,16.83
2022-12-18T11:23:35.369Z,16.79
2022-12-18T11:26:06.998Z,16.86
2022-12-18T11:28:39.507Z,16.74
2022-12-18T11:31:17.954Z,16.65
2022-12-18T11:34:19.702Z,16.93
2022-12-18T11:36:43.186Z,16.80
2022-12-18T11:39:16.193Z,16.86
2022-12-18T11:42:09.521Z,16.62
2022-12-18T11:44:43.432Z,16.71
2022-12-18T11:47:20.293Z,16.84
2022-12-18T11:49:50.741Z,17.03
2022-12-18T11:52:20.903Z,16.68
2022-12-18T11:54:53.163Z,16.83
2022-12-18T11:57:35.206Z,16.84
2022-12-18T12:00:06.017Z,16.84
2022-12-18T12:03:13.726Z,16.79
2022-12-18T12:05:52.516Z,16.68
2022-12-18T12:08:28.180Z,16.84
2022-12-18T12:11:03.068Z,16.88
2022-12-18T12:13:44.973Z,16.74
2022-12-18T12:16:19.570Z,16.76
2022-12-18T12:19:01.678Z,16.82
2022-12-18T12:21:36.599Z,16.74
2022-12-18T12:24:17.076Z,16.73
2022-12-18T12:26:50.489Z,17.00
2022-12-18T12:29:35.488Z,16.65
2022-12-18T12:32:15.723Z,16.81
2022-12-18T12:35:01.667Z,16.83
2022-12-18T12:37:42.150Z,16.64
2022-12-18T12:40:48.461Z,16.83
2022-12-18T12:43:14.334Z,17.10
2022-12-18T12:45:48.440Z,16.85
2022-12-18T12:48:22.920Z,17.02
2022-12-18T12:50:50.946Z,17.20
2022-12-18T12:53:27.142Z,17.12
2022-12-18T12:55:55.800Z,17.23
2022-12-18T12:58:33.351Z,17.25
2022-12-18T13:01:09.693Z,17.28
2022-12-18T13:03:46.541Z,17.53
2022-12-18T13:06:20.500Z,17.74
2022-12-18T13:08:57.545Z,17.48
2022-12-18T13:11:56.181Z,17.30
2022-12-18T13:14:32.151Z,17.35
2022-12-18T13:17:30.316Z,17.41
2022-12-18T13:20:17.254Z,17.42
2022-12-18T13:22:47.202Z,17.28
2022-12-18T13:25:37.309Z,17.54
2022-12-18T13:28:10.151Z,17.65
2022-12-18T13:30:58.402Z,17.68
2022-12-18T13:34:01.938Z,17.46
2022-12-18T13:36:31.581Z,17.50
2022-12-18T13:39:32.655Z,17.97
2022-12-18T13:42:57.088Z,17.66
2022-12-18T13:45:39.913Z,17.76
2022-12-18T13:48:17.267Z,17.75
2022-12-18T13:50:50.221Z,17.91
2022-12-18T13:53:22.146Z,17.66
2022-12-18T13:55:50.540Z,17.74
2022-12-18T13:58:18.024Z,17.82
2022-12-18T14:00:45.292Z,17.83
2022-12-18T14:03:22.428Z,17.82
2022-12-18T14:05:57.667Z,17.79
2022-12-18T14:08:33.402Z,17.68
2022-12-18T14:11:02.233Z,17.92
2022-12-18T14:13:34.647Z,17.72
2022-12-18T14:16:04.327Z,17.79
2022-12-18T14:18:40.762Z,17.77
2022-12-18T14:21:19.976Z,18.00
2022-12-18T14:23:46.962Z,17.87
2022-12-18T14:26:26.434Z,17.86
2022-12-18T14:28:54.861Z,17.85
2022-12-18T14:31:24.039Z,18.03
2022-12-18T14:33:51.334Z,17.85
2022-12-18T14:36:22.105Z,17.96
2022-12-18T14:38:51.387Z,17.91
2022-12-18T14:41:20.374Z,17.92
2022-12-18T14:43:49.136Z,18.08
2022-12-18T14:46:35.499Z,18.11
2022-12-18T14:49:04.664Z,17.92
2022-12-18T14:51:35.142Z,18.15
2022-12-18T14:54:04.354Z,17.93
2022-12-18T14:56:33.413Z,17.96
2022-12-18T14:59:02.292Z,17.80
2022-12-18T15:01:32.430Z,17.95
2022-12-18T15:04:01.277Z,17.96
2022-12-18T15:06:33.400Z,18.35
2022-12-18T15:09:02.383Z,18.07
2022-12-18T15:11:35.865Z,18.02
2022-12-18T15:14:24.600Z,18.01
2022-12-18T15:16:54.688Z,17.92
2022-12-18T15:19:23.549Z,18.05
2022-12-18T15:21:51.825Z,18.01
2022-12-18T15:24:24.322Z,18.02
2022-12-18T15:26:51.347Z,18.05
2022-12-18T15:29:26.230Z,18.01
2022-12-18T15:32:01.820Z,18.04
2022-12-18T15:34:29.097Z,18.16
2022-12-18T15:36:57.399Z,17.93
2022-12-18T15:39:24.382Z,18.01
2022-12-18T15:42:10.116Z,18.09
2022-12-18T15:44:37.799Z,18.01
2022-12-18T15:47:08.726Z,18.14
2022-12-18T15:49:35.557Z,18.17
2022-12-18T15:52:04.284Z,18.16
2022-12-18T15:54:50.024Z,18.06
2022-12-18T15:57:26.503Z,18.03
2022-12-18T15:59:55.299Z,18.12
2022-12-18T16:02:23.924Z,18.16
2022-12-18T16:04:53.432Z,17.94
2022-12-18T16:07:23.029Z,17.98
2022-12-18T16:09:52.780Z,17.95
2022-12-18T16:12:22.987Z,17.85
2022-12-18T16:14:51.229Z,17.86
2022-12-18T16:17:18.526Z,17.79
2022-12-18T16:19:45.699Z,17.99
2022-12-18T16:22:31.879Z,17.85
2022-12-18T16:24:58.773Z,18.08
2022-12-18T16:27:26.508Z,17.91
2022-12-18T16:29:53.393Z,17.83
2022-12-18T16:32:23.541Z,17.83
2022-12-18T16:34:51.407Z,17.78
2022-12-18T16:37:18.350Z,17.92
2022-12-18T16:39:46.718Z,17.85
2022-12-18T16:42:17.549Z,17.90
2022-12-18T16:44:45.229Z,17.93
2022-12-18T16:47:15.030Z,17.96
2022-12-18T16:49:42.373Z,17.92
2022-12-18T16:52:09.409Z,18.01
2022-12-18T16:54:36.771Z,17.78
2022-12-18T16:57:05.551Z,17.78
2022-12-18T16:59:35.443Z,17.86
2022-12-18T17:02:06.771Z,17.90
2022-12-18T17:04:34.986Z,17.95
2022-12-18T17:07:01.965Z,17.84
2022-12-18T17:09:28.982Z,17.89
2022-12-18T17:11:56.423Z,17.79
2022-12-18T17:14:25.371Z,17.74
2022-12-18T17:17:19.127Z,17.95
2022-12-18T17:19:39.959Z,17.88
2022-12-18T17:22:08.267Z,17.96
2022-12-18T17:24:35.805Z,17.88
2022-12-18T17:27:03.030Z,17.79
2022-12-18T17:29:31.376Z,17.91
2022-12-18T17:31:58.719Z,17.99
2022-12-18T17:34:27.456Z,18.05
2022-12-18T17:36:54.537Z,18.07
2022-12-18T17:39:21.441Z,18.03
2022-12-18T17:41:49.469Z,17.77
2022-12-18T17:44:17.765Z,18.10
2022-12-18T17:46:46.608Z,18.02
2022-12-18T17:49:14.183Z,17.84
2022-12-18T17:51:43.095Z,18.13
2022-12-18T17:54:10.657Z,18.08
2022-12-18T17:56:38.543Z,18.07
2022-12-18T17:59:06.867Z,18.00
2022-12-18T18:01:34.370Z,18.11
2022-12-18T18:04:05.315Z,18.00
2022-12-18T18:06:32.282Z,18.08
2022-12-18T18:09:01.697Z,18.14
2022-12-18T18:11:46.906Z,17.97
2022-12-18T18:14:17.019Z,18.12
2022-12-18T18:16:46.100Z,18.12
2022-12-18T18:19:16.833Z,18.13
2022-12-18T18:21:45.657Z,18.08
2022-12-18T18:24:15.108Z,18.18
2022-12-18T18:26:42.357Z,18.16
2022-12-18T18:29:15.315Z,18.04
2022-12-18T18:31:42.756Z,17.80
2022-12-18T18:34:16.278Z,18.08
2022-12-18T18:36:43.368Z,18.13
2022-12-18T18:39:10.502Z,18.19
2022-12-18T18:41:37.443Z,18.00
2022-12-18T18:44:04.795Z,18.15
2022-12-18T18:46:32.451Z,17.98
2022-12-18T18:48:59.311Z,18.08
2022-12-18T18:51:33.075Z,18.07
2022-12-18T18:54:01.806Z,18.05
2022-12-18T18:59:15.907Z,18.07
2022-12-18T19:01:43.068Z,18.29
2022-12-18T19:04:10.116Z,18.31
2022-12-18T19:06:38.432Z,18.36
2022-12-18T19:09:06.780Z,18.28
2022-12-18T19:11:52.053Z,18.33
2022-12-18T19:14:19.073Z,18.35
2022-12-18T19:16:45.989Z,18.38
2022-12-18T19:19:13.925Z,18.35
2022-12-18T19:21:42.371Z,18.44
2022-12-18T19:24:10.316Z,18.50
2022-12-18T19:26:37.821Z,18.64
2022-12-18T19:29:06.739Z,18.45
2022-12-18T19:31:36.498Z,18.21
2022-12-18T19:34:05.143Z,18.46
2022-12-18T19:36:33.337Z,18.51
2022-12-18T19:39:02.320Z,18.46
2022-12-18T19:41:31.267Z,18.58
2022-12-18T19:44:00.166Z,18.60
2022-12-18T19:46:34.624Z,18.47
2022-12-18T19:49:02.064Z,18.56
2022-12-18T19:51:30.855Z,18.96
2022-12-18T19:54:01.442Z,18.58
2022-12-18T19:56:32.419Z,19.01
2022-12-18T19:59:00.045Z,18.95
2022-12-18T20:01:28.425Z,18.71
2022-12-18T20:03:56.814Z,18.47
2022-12-18T20:06:27.649Z,18.59
2022-12-18T20:08:59.440Z,18.38
2022-12-18T20:11:28.252Z,18.54
2022-12-18T20:13:56.579Z,18.49
2022-12-18T20:16:23.577Z,18.44
2022-12-18T20:18:50.547Z,18.60
2022-12-18T20:21:18.766Z,18.64
2022-12-18T20:23:46.306Z,18.45
2022-12-18T20:26:13.340Z,18.52
2022-12-18T20:28:40.744Z,18.64
2022-12-18T20:31:13.541Z,18.67
2022-12-18T20:33:42.529Z,18.68
2022-12-18T20:36:14.308Z,18.69
2022-12-18T20:38:42.884Z,18.70
2022-12-18T20:41:12.272Z,18.69
2022-12-18T20:43:40.930Z,18.55
2022-12-18T20:46:12.158Z,18.36
2022-12-18T20:48:42.906Z,18.47
2022-12-18T20:51:12.432Z,18.46
2022-12-18T20:53:40.846Z,18.23
2022-12-18T20:56:10.967Z,18.49
2022-12-18T20:58:38.196Z,18.59
2022-12-18T21:01:07.776Z,18.57
2022-12-18T21:03:40.053Z,18.47
2022-12-18T21:06:08.525Z,18.56
2022-12-18T21:08:35.360Z,18.68
2022-12-18T21:11:32.773Z,18.53
2022-12-18T21:14:00.053Z,18.58
2022-12-18T21:16:27.033Z,18.74
2022-12-18T21:18:55.314Z,18.61
2022-12-18T21:21:26.584Z,18.54
2022-12-18T21:23:54.395Z,18.66
2022-12-18T21:26:22.994Z,18.68
2022-12-18T21:28:54.333Z,18.42
2022-12-18T21:31:22.503Z,18.74
2022-12-18T21:33:50.381Z,18.63
2022-12-18T21:36:20.810Z,18.71
2022-12-18T21:38:47.689Z,18.76
2022-12-18T21:41:38.782Z,18.88
2022-12-18T21:44:11.976Z,18.72
2022-12-18T21:46:40.611Z,18.75
2022-12-18T21:49:09.653Z,18.95
2022-12-18T21:51:38.003Z,18.59
2022-12-18T21:54:05.084Z,18.75
2022-12-18T21:56:48.636Z,19.09
2022-12-18T21:59:18.077Z,19.48
2022-12-18T22:01:45.251Z,19.10
2022-12-18T22:04:12.580Z,19.02
2022-12-18T22:06:42.691Z,18.97
2022-12-18T22:09:10.736Z,18.85
2022-12-18T22:11:37.604Z,18.90
2022-12-18T22:14:04.756Z,18.95
2022-12-18T22:16:31.650Z,19.07
2022-12-18T22:18:58.519Z,18.91
2022-12-18T22:21:29.313Z,18.82
2022-12-18T22:23:59.706Z,19.13
2022-12-18T22:26:28.569Z,19.20
2022-12-18T22:29:14.019Z,19.12
2022-12-18T22:31:41.265Z,19.15
2022-12-18T22:34:08.712Z,19.14
2022-12-18T22:36:37.291Z,18.97
2022-12-18T22:39:07.802Z,19.19
2022-12-18T22:41:35.672Z,18.99
2022-12-18T22:44:02.855Z,19.27
2022-12-18T22:46:32.665Z,19.17
2022-12-18T22:48:59.709Z,19.06
2022-12-18T22:51:26.607Z,19.15
2022-12-18T22:53:53.631Z,19.27
2022-12-18T22:56:23.429Z,19.50
2022-12-18T22:58:51.482Z,19.08
2022-12-18T23:01:20.749Z,19.35
2022-12-18T23:03:48.657Z,19.10
2022-12-18T23:06:16.741Z,19.30
2022-12-18T23:08:44.184Z,19.19
2022-12-18T23:11:12.119Z,19.36
2022-12-18T23:13:40.986Z,19.14
2022-12-18T23:16:09.901Z,19.06
2022-12-18T23:18:37.367Z,19.12
2022-12-18T23:21:05.787Z,19.46
2022-12-18T23:23:34.620Z,18.99
2022-12-18T23:26:02.610Z,19.46
2022-12-18T23:28:30.662Z,19.40
2022-12-18T23:31:06.484Z,19.49
2022-12-18T23:33:33.709Z,19.41
2022-12-18T23:36:02.041Z,19.41
2022-12-18T23:38:29.832Z,19.59
2022-12-18T23:40:56.989Z,19.25
2022-12-18T23:43:24.733Z,19.47
2022-12-18T23:45:55.663Z,19.50
2022-12-18T23:48:24.209Z,19.64
2022-12-18T23:50:51.034Z,19.66
2022-12-18T23:53:17.910Z,19.35
2022-12-18T23:55:45.472Z,19.22
2022-12-18T23:58:17.562Z,19.47
